sensor_id;sensor_type;location;lat;lon;timestamp;P1;durP1;ratioP1;P2;durP2;ratioP2
7045;SDS011;3564;53.326;10.356;2023-08-12T00:00:33;6.83;;;3.73;;
7045;SDS011;3564;53.326;10.356;2023-08-12T00:02:59;3.60;;;3.27;;
7045;SDS011;3564;53.326;10.356;2023-08-12T00:05:24;5.00;;;3.23;;
7045;SDS011;3564;53.326;10.356;2023-08-12T00:07:50;3.67;;;3.27;;
7045;SDS011;3564;53.326;10.356;2023-08-12T00:10:15;4.23;;;3.50;;
7045;SDS011;3564;53.326;10.356;2023-08-12T00:12:41;7.10;;;3.40;;
7045;SDS011;3564;53.326;10.356;2023-08-12T00:15:07;4.67;;;3.40;;
7045;SDS011;3564;53.326;10.356;2023-08-12T00:17:35;5.57;;;2.93;;
7045;SDS011;3564;53.326;10.356;2023-08-12T00:20:02;5.97;;;3.10;;
7045;SDS011;3564;53.326;10.356;2023-08-12T00:22:31;8.03;;;3.17;;
7045;SDS011;3564;53.326;10.356;2023-08-12T00:24:57;4.80;;;3.20;;
7045;SDS011;3564;53.326;10.356;2023-08-12T00:27:22;7.60;;;2.97;;
7045;SDS011;3564;53.326;10.356;2023-08-12T00:29:48;3.90;;;3.43;;
7045;SDS011;3564;53.326;10.356;2023-08-12T00:32:14;3.40;;;3.10;;
7045;SDS011;3564;53.326;10.356;2023-08-12T00:34:40;5.57;;;3.00;;
7045;SDS011;3564;53.326;10.356;2023-08-12T00:37:05;3.20;;;2.90;;
7045;SDS011;3564;53.326;10.356;2023-08-12T00:39:31;4.20;;;3.30;;
7045;SDS011;3564;53.326;10.356;2023-08-12T00:41:56;6.83;;;3.03;;
7045;SDS011;3564;53.326;10.356;2023-08-12T00:44:22;4.30;;;2.93;;
7045;SDS011;3564;53.326;10.356;2023-08-12T00:46:47;5.07;;;2.60;;
7045;SDS011;3564;53.326;10.356;2023-08-12T00:49:14;6.90;;;3.00;;
7045;SDS011;3564;53.326;10.356;2023-08-12T00:51:41;4.70;;;3.07;;
7045;SDS011;3564;53.326;10.356;2023-08-12T00:54:08;3.87;;;3.13;;
7045;SDS011;3564;53.326;10.356;2023-08-12T00:56:38;6.07;;;3.17;;
7045;SDS011;3564;53.326;10.356;2023-08-12T00:59:04;4.67;;;3.10;;
7045;SDS011;3564;53.326;10.356;2023-08-12T01:01:32;3.57;;;2.90;;
7045;SDS011;3564;53.326;10.356;2023-08-12T01:03:58;5.10;;;2.63;;
7045;SDS011;3564;53.326;10.356;2023-08-12T01:06:24;4.70;;;2.83;;
7045;SDS011;3564;53.326;10.356;2023-08-12T01:08:50;6.57;;;3.00;;
7045;SDS011;3564;53.326;10.356;2023-08-12T01:14:22;3.20;;;2.90;;
7045;SDS011;3564;53.326;10.356;2023-08-12T01:17:05;3.93;;;2.77;;
7045;SDS011;3564;53.326;10.356;2023-08-12T01:19:34;3.80;;;2.93;;
7045;SDS011;3564;53.326;10.356;2023-08-12T01:22:06;5.23;;;2.83;;
7045;SDS011;3564;53.326;10.356;2023-08-12T01:24:35;4.17;;;2.73;;
7045;SDS011;3564;53.326;10.356;2023-08-12T01:27:08;3.80;;;2.63;;
7045;SDS011;3564;53.326;10.356;2023-08-12T01:29:37;4.73;;;3.23;;
7045;SDS011;3564;53.326;10.356;2023-08-12T01:37:31;3.87;;;2.70;;
7045;SDS011;3564;53.326;10.356;2023-08-12T01:39:59;4.37;;;3.07;;
7045;SDS011;3564;53.326;10.356;2023-08-12T01:42:29;4.70;;;2.70;;
7045;SDS011;3564;53.326;10.356;2023-08-12T01:44:55;3.10;;;2.77;;
7045;SDS011;3564;53.326;10.356;2023-08-12T01:47:21;4.17;;;2.60;;
7045;SDS011;3564;53.326;10.356;2023-08-12T01:49:47;5.23;;;3.13;;
7045;SDS011;3564;53.326;10.356;2023-08-12T01:52:15;4.33;;;2.87;;
7045;SDS011;3564;53.326;10.356;2023-08-12T01:54:41;4.50;;;2.90;;
7045;SDS011;3564;53.326;10.356;2023-08-12T01:57:09;2.87;;;2.50;;
7045;SDS011;3564;53.326;10.356;2023-08-12T01:59:35;3.00;;;2.70;;
7045;SDS011;3564;53.326;10.356;2023-08-12T02:02:01;2.93;;;2.63;;
7045;SDS011;3564;53.326;10.356;2023-08-12T02:04:26;3.10;;;2.80;;
7045;SDS011;3564;53.326;10.356;2023-08-12T02:06:52;6.97;;;3.03;;
7045;SDS011;3564;53.326;10.356;2023-08-12T02:09:25;3.17;;;2.73;;
7045;SDS011;3564;53.326;10.356;2023-08-12T02:11:53;5.07;;;2.80;;
7045;SDS011;3564;53.326;10.356;2023-08-12T02:14:19;6.30;;;2.90;;
7045;SDS011;3564;53.326;10.356;2023-08-12T02:16:48;5.10;;;2.57;;
7045;SDS011;3564;53.326;10.356;2023-08-12T02:19:13;3.83;;;2.63;;
7045;SDS011;3564;53.326;10.356;2023-08-12T02:21:42;4.03;;;2.90;;
7045;SDS011;3564;53.326;10.356;2023-08-12T02:24:08;3.70;;;2.70;;
7045;SDS011;3564;53.326;10.356;2023-08-12T02:26:34;3.53;;;2.80;;
7045;SDS011;3564;53.326;10.356;2023-08-12T02:29:00;3.30;;;2.47;;
7045;SDS011;3564;53.326;10.356;2023-08-12T02:31:29;3.57;;;2.83;;
7045;SDS011;3564;53.326;10.356;2023-08-12T02:33:58;3.87;;;2.90;;
7045;SDS011;3564;53.326;10.356;2023-08-12T02:36:23;3.10;;;2.70;;
7045;SDS011;3564;53.326;10.356;2023-08-12T02:38:50;5.37;;;3.23;;
7045;SDS011;3564;53.326;10.356;2023-08-12T02:41:15;3.43;;;2.80;;
7045;SDS011;3564;53.326;10.356;2023-08-12T02:43:44;3.97;;;2.83;;
7045;SDS011;3564;53.326;10.356;2023-08-12T02:46:16;4.17;;;3.00;;
7045;SDS011;3564;53.326;10.356;2023-08-12T02:48:43;4.40;;;2.90;;
7045;SDS011;3564;53.326;10.356;2023-08-12T02:51:08;4.70;;;2.83;;
7045;SDS011;3564;53.326;10.356;2023-08-12T02:53:34;6.60;;;2.70;;
7045;SDS011;3564;53.326;10.356;2023-08-12T02:56:00;4.43;;;2.77;;
7045;SDS011;3564;53.326;10.356;2023-08-12T02:58:26;5.27;;;3.40;;
7045;SDS011;3564;53.326;10.356;2023-08-12T03:00:51;5.97;;;2.90;;
7045;SDS011;3564;53.326;10.356;2023-08-12T03:03:19;4.53;;;3.03;;
7045;SDS011;3564;53.326;10.356;2023-08-12T03:05:50;3.47;;;2.97;;
7045;SDS011;3564;53.326;10.356;2023-08-12T03:08:19;3.87;;;3.07;;
7045;SDS011;3564;53.326;10.356;2023-08-12T03:10:44;3.40;;;3.10;;
7045;SDS011;3564;53.326;10.356;2023-08-12T03:13:10;6.87;;;2.97;;
7045;SDS011;3564;53.326;10.356;2023-08-12T03:15:38;5.30;;;2.90;;
7045;SDS011;3564;53.326;10.356;2023-08-12T03:18:05;5.17;;;3.00;;
7045;SDS011;3564;53.326;10.356;2023-08-12T03:20:30;6.47;;;3.10;;
7045;SDS011;3564;53.326;10.356;2023-08-12T03:22:56;2.83;;;2.63;;
7045;SDS011;3564;53.326;10.356;2023-08-12T03:25:21;3.47;;;3.03;;
7045;SDS011;3564;53.326;10.356;2023-08-12T03:27:50;4.47;;;2.80;;
7045;SDS011;3564;53.326;10.356;2023-08-12T03:30:19;4.53;;;3.10;;
7045;SDS011;3564;53.326;10.356;2023-08-12T03:32:45;4.67;;;3.50;;
7045;SDS011;3564;53.326;10.356;2023-08-12T03:35:10;5.27;;;3.40;;
7045;SDS011;3564;53.326;10.356;2023-08-12T03:37:39;6.47;;;3.37;;
7045;SDS011;3564;53.326;10.356;2023-08-12T03:40:05;4.30;;;2.80;;
7045;SDS011;3564;53.326;10.356;2023-08-12T03:42:31;3.67;;;2.83;;
7045;SDS011;3564;53.326;10.356;2023-08-12T03:44:57;6.13;;;3.20;;
7045;SDS011;3564;53.326;10.356;2023-08-12T03:47:25;3.53;;;3.10;;
7045;SDS011;3564;53.326;10.356;2023-08-12T03:49:51;4.33;;;3.00;;
7045;SDS011;3564;53.326;10.356;2023-08-12T03:52:16;7.33;;;3.27;;
7045;SDS011;3564;53.326;10.356;2023-08-12T03:54:45;3.70;;;3.30;;
7045;SDS011;3564;53.326;10.356;2023-08-12T03:57:11;5.10;;;3.20;;
7045;SDS011;3564;53.326;10.356;2023-08-12T03:59:36;3.83;;;2.80;;
7045;SDS011;3564;53.326;10.356;2023-08-12T04:02:02;7.73;;;3.07;;
7045;SDS011;3564;53.326;10.356;2023-08-12T04:04:29;5.33;;;2.93;;
7045;SDS011;3564;53.326;10.356;2023-08-12T04:06:55;3.87;;;3.47;;
7045;SDS011;3564;53.326;10.356;2023-08-12T04:09:20;4.47;;;2.90;;
7045;SDS011;3564;53.326;10.356;2023-08-12T04:11:46;5.60;;;3.33;;
7045;SDS011;3564;53.326;10.356;2023-08-12T04:14:14;5.20;;;2.90;;
7045;SDS011;3564;53.326;10.356;2023-08-12T04:16:40;3.93;;;2.90;;
7045;SDS011;3564;53.326;10.356;2023-08-12T04:19:06;4.27;;;2.97;;
7045;SDS011;3564;53.326;10.356;2023-08-12T04:21:35;7.23;;;3.10;;
7045;SDS011;3564;53.326;10.356;2023-08-12T04:24:03;7.67;;;3.50;;
7045;SDS011;3564;53.326;10.356;2023-08-12T04:26:29;4.47;;;3.10;;
7045;SDS011;3564;53.326;10.356;2023-08-12T04:28:58;3.30;;;3.00;;
7045;SDS011;3564;53.326;10.356;2023-08-12T04:31:23;8.13;;;3.40;;
7045;SDS011;3564;53.326;10.356;2023-08-12T04:33:49;4.57;;;3.50;;
7045;SDS011;3564;53.326;10.356;2023-08-12T04:36:17;5.33;;;3.57;;
7045;SDS011;3564;53.326;10.356;2023-08-12T04:38:43;4.93;;;3.00;;
7045;SDS011;3564;53.326;10.356;2023-08-12T04:41:08;3.60;;;3.20;;
7045;SDS011;3564;53.326;10.356;2023-08-12T04:43:34;5.07;;;3.20;;
7045;SDS011;3564;53.326;10.356;2023-08-12T04:46:02;4.77;;;3.00;;
7045;SDS011;3564;53.326;10.356;2023-08-12T04:48:28;3.97;;;2.93;;
7045;SDS011;3564;53.326;10.356;2023-08-12T04:50:53;5.37;;;2.87;;
7045;SDS011;3564;53.326;10.356;2023-08-12T04:53:27;4.83;;;3.13;;
7045;SDS011;3564;53.326;10.356;2023-08-12T04:55:56;4.90;;;3.17;;
7045;SDS011;3564;53.326;10.356;2023-08-12T04:58:25;3.90;;;3.60;;
7045;SDS011;3564;53.326;10.356;2023-08-12T05:00:53;4.77;;;3.23;;
7045;SDS011;3564;53.326;10.356;2023-08-12T05:03:19;5.70;;;3.80;;
7045;SDS011;3564;53.326;10.356;2023-08-12T05:05:48;4.23;;;3.23;;
7045;SDS011;3564;53.326;10.356;2023-08-12T05:08:15;4.73;;;3.50;;
7045;SDS011;3564;53.326;10.356;2023-08-12T05:10:41;6.27;;;3.50;;
7045;SDS011;3564;53.326;10.356;2023-08-12T05:13:06;4.57;;;3.20;;
7045;SDS011;3564;53.326;10.356;2023-08-12T05:15:32;5.27;;;3.60;;
7045;SDS011;3564;53.326;10.356;2023-08-12T05:17:57;4.07;;;3.27;;
7045;SDS011;3564;53.326;10.356;2023-08-12T05:20:23;4.93;;;3.40;;
7045;SDS011;3564;53.326;10.356;2023-08-12T05:22:49;3.63;;;3.33;;
7045;SDS011;3564;53.326;10.356;2023-08-12T05:25:14;7.80;;;3.47;;
7045;SDS011;3564;53.326;10.356;2023-08-12T05:27:40;5.63;;;4.00;;
7045;SDS011;3564;53.326;10.356;2023-08-12T05:30:06;4.77;;;3.67;;
7045;SDS011;3564;53.326;10.356;2023-08-12T05:32:35;6.30;;;3.67;;
7045;SDS011;3564;53.326;10.356;2023-08-12T05:35:00;7.90;;;3.97;;
7045;SDS011;3564;53.326;10.356;2023-08-12T05:37:26;6.93;;;3.73;;
7045;SDS011;3564;53.326;10.356;2023-08-12T05:39:55;7.40;;;3.50;;
7045;SDS011;3564;53.326;10.356;2023-08-12T05:42:20;3.93;;;3.10;;
7045;SDS011;3564;53.326;10.356;2023-08-12T05:44:46;5.50;;;3.50;;
7045;SDS011;3564;53.326;10.356;2023-08-12T05:47:11;4.93;;;4.17;;
7045;SDS011;3564;53.326;10.356;2023-08-12T05:49:37;4.37;;;3.63;;
7045;SDS011;3564;53.326;10.356;2023-08-12T05:52:02;5.90;;;4.00;;
7045;SDS011;3564;53.326;10.356;2023-08-12T05:54:28;6.00;;;3.33;;
7045;SDS011;3564;53.326;10.356;2023-08-12T05:56:54;4.43;;;3.80;;
7045;SDS011;3564;53.326;10.356;2023-08-12T05:59:19;5.17;;;3.33;;
7045;SDS011;3564;53.326;10.356;2023-08-12T06:01:45;3.83;;;3.50;;
7045;SDS011;3564;53.326;10.356;2023-08-12T06:04:11;6.77;;;3.23;;
7045;SDS011;3564;53.326;10.356;2023-08-12T06:06:36;6.80;;;3.87;;
7045;SDS011;3564;53.326;10.356;2023-08-12T06:09:02;5.17;;;3.50;;
7045;SDS011;3564;53.326;10.356;2023-08-12T06:11:28;6.57;;;3.70;;
7045;SDS011;3564;53.326;10.356;2023-08-12T06:13:53;3.93;;;3.40;;
7045;SDS011;3564;53.326;10.356;2023-08-12T06:16:19;5.00;;;3.60;;
7045;SDS011;3564;53.326;10.356;2023-08-12T06:18:44;4.13;;;3.10;;
7045;SDS011;3564;53.326;10.356;2023-08-12T06:21:10;4.73;;;3.23;;
7045;SDS011;3564;53.326;10.356;2023-08-12T06:23:41;4.20;;;3.77;;
7045;SDS011;3564;53.326;10.356;2023-08-12T06:26:07;5.13;;;3.43;;
7045;SDS011;3564;53.326;10.356;2023-08-12T06:28:33;6.47;;;3.83;;
7045;SDS011;3564;53.326;10.356;2023-08-12T06:31:02;4.23;;;3.83;;
7045;SDS011;3564;53.326;10.356;2023-08-12T06:33:27;6.90;;;4.10;;
7045;SDS011;3564;53.326;10.356;2023-08-12T06:35:53;7.83;;;4.13;;
7045;SDS011;3564;53.326;10.356;2023-08-12T06:38:18;5.07;;;4.20;;
7045;SDS011;3564;53.326;10.356;2023-08-12T06:40:44;3.93;;;3.53;;
7045;SDS011;3564;53.326;10.356;2023-08-12T06:43:09;8.00;;;4.17;;
7045;SDS011;3564;53.326;10.356;2023-08-12T06:45:35;7.33;;;3.90;;
7045;SDS011;3564;53.326;10.356;2023-08-12T06:48:04;5.13;;;3.80;;
7045;SDS011;3564;53.326;10.356;2023-08-12T06:50:32;7.77;;;4.17;;
7045;SDS011;3564;53.326;10.356;2023-08-12T06:52:58;6.30;;;3.80;;
7045;SDS011;3564;53.326;10.356;2023-08-12T06:55:27;5.73;;;3.80;;
7045;SDS011;3564;53.326;10.356;2023-08-12T06:57:52;7.77;;;3.90;;
7045;SDS011;3564;53.326;10.356;2023-08-12T07:00:18;5.80;;;4.03;;
7045;SDS011;3564;53.326;10.356;2023-08-12T07:02:44;6.97;;;4.07;;
7045;SDS011;3564;53.326;10.356;2023-08-12T07:05:09;6.07;;;4.17;;
7045;SDS011;3564;53.326;10.356;2023-08-12T07:07:38;6.03;;;4.13;;
7045;SDS011;3564;53.326;10.356;2023-08-12T07:10:06;5.67;;;3.70;;
7045;SDS011;3564;53.326;10.356;2023-08-12T07:12:32;5.87;;;4.50;;
7045;SDS011;3564;53.326;10.356;2023-08-12T07:14:58;4.83;;;4.07;;
7045;SDS011;3564;53.326;10.356;2023-08-12T07:17:24;4.47;;;4.07;;
7045;SDS011;3564;53.326;10.356;2023-08-12T07:19:50;7.30;;;4.23;;
7045;SDS011;3564;53.326;10.356;2023-08-12T07:22:15;8.00;;;4.40;;
7045;SDS011;3564;53.326;10.356;2023-08-12T07:24:44;5.07;;;4.60;;
7045;SDS011;3564;53.326;10.356;2023-08-12T07:27:10;7.97;;;5.00;;
7045;SDS011;3564;53.326;10.356;2023-08-12T07:29:38;7.07;;;5.20;;
7045;SDS011;3564;53.326;10.356;2023-08-12T07:32:04;8.87;;;5.17;;
7045;SDS011;3564;53.326;10.356;2023-08-12T07:34:30;8.97;;;5.50;;
7045;SDS011;3564;53.326;10.356;2023-08-12T07:36:58;6.03;;;5.40;;
7045;SDS011;3564;53.326;10.356;2023-08-12T07:39:24;8.37;;;5.27;;
7045;SDS011;3564;53.326;10.356;2023-08-12T07:41:49;5.83;;;5.23;;
7045;SDS011;3564;53.326;10.356;2023-08-12T07:44:15;6.20;;;5.60;;
7045;SDS011;3564;53.326;10.356;2023-08-12T07:46:43;6.80;;;5.20;;
7045;SDS011;3564;53.326;10.356;2023-08-12T07:49:09;7.53;;;5.77;;
7045;SDS011;3564;53.326;10.356;2023-08-12T07:51:35;9.07;;;5.07;;
7045;SDS011;3564;53.326;10.356;2023-08-12T07:54:03;8.23;;;5.20;;
7045;SDS011;3564;53.326;10.356;2023-08-12T07:56:29;8.20;;;5.33;;
7045;SDS011;3564;53.326;10.356;2023-08-12T07:58:55;6.93;;;6.03;;
7045;SDS011;3564;53.326;10.356;2023-08-12T08:01:30;6.47;;;5.80;;
7045;SDS011;3564;53.326;10.356;2023-08-12T08:03:55;8.70;;;5.57;;
7045;SDS011;3564;53.326;10.356;2023-08-12T08:06:22;8.63;;;5.27;;
7045;SDS011;3564;53.326;10.356;2023-08-12T08:08:51;7.93;;;5.40;;
7045;SDS011;3564;53.326;10.356;2023-08-12T08:11:16;7.43;;;5.63;;
7045;SDS011;3564;53.326;10.356;2023-08-12T08:13:42;6.90;;;5.60;;
7045;SDS011;3564;53.326;10.356;2023-08-12T08:16:07;6.13;;;5.30;;
7045;SDS011;3564;53.326;10.356;2023-08-12T08:18:39;7.97;;;5.77;;
7045;SDS011;3564;53.326;10.356;2023-08-12T08:21:05;6.90;;;6.07;;
7045;SDS011;3564;53.326;10.356;2023-08-12T08:23:30;6.67;;;5.80;;
7045;SDS011;3564;53.326;10.356;2023-08-12T08:25:56;7.07;;;6.20;;
7045;SDS011;3564;53.326;10.356;2023-08-12T08:28:22;9.23;;;6.70;;
7045;SDS011;3564;53.326;10.356;2023-08-12T08:30:48;8.37;;;6.70;;
7045;SDS011;3564;53.326;10.356;2023-08-12T08:33:14;13.87;;;6.90;;
7045;SDS011;3564;53.326;10.356;2023-08-12T08:35:39;7.77;;;6.30;;
7045;SDS011;3564;53.326;10.356;2023-08-12T08:38:05;7.63;;;6.63;;
7045;SDS011;3564;53.326;10.356;2023-08-12T08:40:30;8.83;;;6.53;;
7045;SDS011;3564;53.326;10.356;2023-08-12T08:42:56;9.07;;;6.70;;
7045;SDS011;3564;53.326;10.356;2023-08-12T08:45:32;12.37;;;6.70;;
7045;SDS011;3564;53.326;10.356;2023-08-12T08:47:59;8.47;;;6.83;;
7045;SDS011;3564;53.326;10.356;2023-08-12T08:50:26;11.13;;;7.20;;
7045;SDS011;3564;53.326;10.356;2023-08-12T08:52:54;9.20;;;6.97;;
7045;SDS011;3564;53.326;10.356;2023-08-12T08:55:21;7.53;;;6.53;;
7045;SDS011;3564;53.326;10.356;2023-08-12T08:57:47;10.40;;;6.80;;
7045;SDS011;3564;53.326;10.356;2023-08-12T09:00:15;7.97;;;6.63;;
7045;SDS011;3564;53.326;10.356;2023-08-12T09:02:42;9.90;;;7.37;;
7045;SDS011;3564;53.326;10.356;2023-08-12T09:05:09;9.10;;;6.90;;
7045;SDS011;3564;53.326;10.356;2023-08-12T09:07:36;9.13;;;7.17;;
7045;SDS011;3564;53.326;10.356;2023-08-12T09:10:02;8.50;;;7.60;;
7045;SDS011;3564;53.326;10.356;2023-08-12T09:12:29;7.93;;;6.83;;
7045;SDS011;3564;53.326;10.356;2023-08-12T09:14:56;9.53;;;7.03;;
7045;SDS011;3564;53.326;10.356;2023-08-12T09:17:22;11.23;;;6.90;;
7045;SDS011;3564;53.326;10.356;2023-08-12T09:19:47;7.47;;;6.10;;
7045;SDS011;3564;53.326;10.356;2023-08-12T09:22:17;8.50;;;6.13;;
7045;SDS011;3564;53.326;10.356;2023-08-12T09:24:43;10.03;;;6.40;;
7045;SDS011;3564;53.326;10.356;2023-08-12T09:27:09;7.20;;;6.07;;
7045;SDS011;3564;53.326;10.356;2023-08-12T09:29:35;8.67;;;6.77;;
7045;SDS011;3564;53.326;10.356;2023-08-12T09:32:17;10.03;;;6.53;;
7045;SDS011;3564;53.326;10.356;2023-08-12T09:34:47;9.23;;;6.80;;
7045;SDS011;3564;53.326;10.356;2023-08-12T09:37:16;8.67;;;7.30;;
7045;SDS011;3564;53.326;10.356;2023-08-12T09:39:42;9.17;;;7.13;;
7045;SDS011;3564;53.326;10.356;2023-08-12T09:42:08;9.10;;;7.20;;
7045;SDS011;3564;53.326;10.356;2023-08-12T09:44:37;9.10;;;7.13;;
7045;SDS011;3564;53.326;10.356;2023-08-12T09:47:04;14.20;;;7.67;;
7045;SDS011;3564;53.326;10.356;2023-08-12T09:49:31;7.33;;;6.63;;
7045;SDS011;3564;53.326;10.356;2023-08-12T09:51:57;10.13;;;7.20;;
7045;SDS011;3564;53.326;10.356;2023-08-12T09:54:26;9.13;;;7.00;;
7045;SDS011;3564;53.326;10.356;2023-08-12T09:56:56;7.40;;;6.27;;
7045;SDS011;3564;53.326;10.356;2023-08-12T09:59:35;10.03;;;7.27;;
7045;SDS011;3564;53.326;10.356;2023-08-12T10:02:05;9.00;;;7.10;;
7045;SDS011;3564;53.326;10.356;2023-08-12T10:04:37;9.10;;;7.60;;
7045;SDS011;3564;53.326;10.356;2023-08-12T10:07:15;7.50;;;6.23;;
7045;SDS011;3564;53.326;10.356;2023-08-12T10:09:43;9.07;;;7.17;;
7045;SDS011;3564;53.326;10.356;2023-08-12T10:12:12;10.70;;;6.67;;
7045;SDS011;3564;53.326;10.356;2023-08-12T10:14:42;7.57;;;6.43;;
7045;SDS011;3564;53.326;10.356;2023-08-12T10:17:08;6.70;;;6.10;;
7045;SDS011;3564;53.326;10.356;2023-08-12T10:19:35;10.23;;;6.83;;
7045;SDS011;3564;53.326;10.356;2023-08-12T10:22:02;8.53;;;5.70;;
7045;SDS011;3564;53.326;10.356;2023-08-12T10:24:28;7.00;;;5.80;;
7045;SDS011;3564;53.326;10.356;2023-08-12T10:26:54;7.27;;;6.53;;
7045;SDS011;3564;53.326;10.356;2023-08-12T10:29:22;7.87;;;6.10;;
7045;SDS011;3564;53.326;10.356;2023-08-12T10:31:49;6.90;;;5.80;;
7045;SDS011;3564;53.326;10.356;2023-08-12T10:34:19;7.67;;;6.43;;
7045;SDS011;3564;53.326;10.356;2023-08-12T10:36:56;8.50;;;6.07;;
7045;SDS011;3564;53.326;10.356;2023-08-12T10:39:25;7.83;;;6.60;;
7045;SDS011;3564;53.326;10.356;2023-08-12T10:41:51;6.70;;;6.10;;
7045;SDS011;3564;53.326;10.356;2023-08-12T10:44:20;7.20;;;5.97;;
7045;SDS011;3564;53.326;10.356;2023-08-12T10:46:53;8.90;;;6.00;;
7045;SDS011;3564;53.326;10.356;2023-08-12T10:49:20;6.73;;;6.03;;
7045;SDS011;3564;53.326;10.356;2023-08-12T10:51:47;7.03;;;6.33;;
7045;SDS011;3564;53.326;10.356;2023-08-12T11:05:11;7.63;;;4.87;;
7045;SDS011;3564;53.326;10.356;2023-08-12T11:07:46;11.00;;;7.00;;
7045;SDS011;3564;53.326;10.356;2023-08-12T11:10:23;9.30;;;5.40;;
7045;SDS011;3564;53.326;10.356;2023-08-12T11:15:19;7.07;;;5.47;;
7045;SDS011;3564;53.326;10.356;2023-08-12T11:17:55;6.23;;;5.63;;
7045;SDS011;3564;53.326;10.356;2023-08-12T11:20:21;5.27;;;4.77;;
7045;SDS011;3564;53.326;10.356;2023-08-12T11:22:46;7.60;;;4.78;;
7045;SDS011;3564;53.326;10.356;2023-08-12T11:25:12;8.47;;;5.07;;
7045;SDS011;3564;53.326;10.356;2023-08-12T11:27:42;6.10;;;4.90;;
7045;SDS011;3564;53.326;10.356;2023-08-12T11:30:12;6.10;;;5.47;;
7045;SDS011;3564;53.326;10.356;2023-08-12T11:32:42;6.70;;;5.80;;
7045;SDS011;3564;53.326;10.356;2023-08-12T11:35:09;6.77;;;6.07;;
7045;SDS011;3564;53.326;10.356;2023-08-12T11:37:36;7.73;;;5.17;;
7045;SDS011;3564;53.326;10.356;2023-08-12T11:40:03;8.30;;;6.37;;
7045;SDS011;3564;53.326;10.356;2023-08-12T11:42:30;7.95;;;6.35;;
7045;SDS011;3564;53.326;10.356;2023-08-12T11:44:55;7.87;;;6.40;;
7045;SDS011;3564;53.326;10.356;2023-08-12T11:47:21;7.90;;;5.83;;
7045;SDS011;3564;53.326;10.356;2023-08-12T11:49:47;8.53;;;5.17;;
7045;SDS011;3564;53.326;10.356;2023-08-12T11:52:21;6.43;;;5.73;;
7045;SDS011;3564;53.326;10.356;2023-08-12T11:54:49;6.15;;;5.40;;
7045;SDS011;3564;53.326;10.356;2023-08-12T11:57:15;6.23;;;5.63;;
7045;SDS011;3564;53.326;10.356;2023-08-12T11:59:41;6.93;;;5.40;;
7045;SDS011;3564;53.326;10.356;2023-08-12T12:02:07;7.23;;;5.40;;
7045;SDS011;3564;53.326;10.356;2023-08-12T12:04:36;7.60;;;5.60;;
7045;SDS011;3564;53.326;10.356;2023-08-12T12:07:01;7.47;;;5.67;;
7045;SDS011;3564;53.326;10.356;2023-08-12T12:09:44;8.23;;;6.00;;
7045;SDS011;3564;53.326;10.356;2023-08-12T12:12:09;8.00;;;5.77;;
7045;SDS011;3564;53.326;10.356;2023-08-12T12:14:38;6.00;;;5.27;;
7045;SDS011;3564;53.326;10.356;2023-08-12T12:17:07;6.27;;;5.67;;
7045;SDS011;3564;53.326;10.356;2023-08-12T12:19:39;6.87;;;6.17;;
7045;SDS011;3564;53.326;10.356;2023-08-12T12:22:06;7.70;;;5.00;;
7045;SDS011;3564;53.326;10.356;2023-08-12T12:24:32;6.97;;;5.70;;
7045;SDS011;3564;53.326;10.356;2023-08-12T12:27:13;7.07;;;5.73;;
7045;SDS011;3564;53.326;10.356;2023-08-12T12:29:39;6.23;;;5.50;;
7045;SDS011;3564;53.326;10.356;2023-08-12T12:32:10;7.17;;;6.10;;
7045;SDS011;3564;53.326;10.356;2023-08-12T12:34:36;9.00;;;7.90;;
7045;SDS011;3564;53.326;10.356;2023-08-12T12:37:02;8.97;;;7.83;;
7045;SDS011;3564;53.326;10.356;2023-08-12T12:39:27;8.25;;;6.82;;
7045;SDS011;3564;53.326;10.356;2023-08-12T12:41:53;7.77;;;6.60;;
7045;SDS011;3564;53.326;10.356;2023-08-12T12:44:19;10.32;;;6.40;;
7045;SDS011;3564;53.326;10.356;2023-08-12T12:46:44;6.43;;;5.73;;
7045;SDS011;3564;53.326;10.356;2023-08-12T12:49:10;7.33;;;5.23;;
7045;SDS011;3564;53.326;10.356;2023-08-12T12:51:38;7.03;;;5.13;;
7045;SDS011;3564;53.326;10.356;2023-08-12T12:54:04;7.93;;;5.90;;
7045;SDS011;3564;53.326;10.356;2023-08-12T12:56:29;10.37;;;5.40;;
7045;SDS011;3564;53.326;10.356;2023-08-12T12:58:55;7.33;;;5.67;;
7045;SDS011;3564;53.326;10.356;2023-08-12T13:01:20;8.32;;;5.70;;
7045;SDS011;3564;53.326;10.356;2023-08-12T13:03:46;8.63;;;5.87;;
7045;SDS011;3564;53.326;10.356;2023-08-12T13:06:11;7.63;;;5.03;;
7045;SDS011;3564;53.326;10.356;2023-08-12T13:08:37;7.70;;;5.57;;
7045;SDS011;3564;53.326;10.356;2023-08-12T13:11:03;8.20;;;5.97;;
7045;SDS011;3564;53.326;10.356;2023-08-12T13:13:28;7.50;;;5.33;;
7045;SDS011;3564;53.326;10.356;2023-08-12T13:15:54;5.90;;;5.07;;
7045;SDS011;3564;53.326;10.356;2023-08-12T13:18:19;11.52;;;5.93;;
7045;SDS011;3564;53.326;10.356;2023-08-12T13:20:45;7.18;;;5.80;;
7045;SDS011;3564;53.326;10.356;2023-08-12T13:23:14;6.30;;;5.18;;
7045;SDS011;3564;53.326;10.356;2023-08-12T13:25:42;6.10;;;5.50;;
7045;SDS011;3564;53.326;10.356;2023-08-12T13:28:11;6.07;;;5.33;;
7045;SDS011;3564;53.326;10.356;2023-08-12T13:30:36;7.43;;;5.68;;
7045;SDS011;3564;53.326;10.356;2023-08-12T13:33:02;7.40;;;5.43;;
7045;SDS011;3564;53.326;10.356;2023-08-12T13:35:28;6.23;;;5.17;;
7045;SDS011;3564;53.326;10.356;2023-08-12T13:37:54;6.83;;;5.23;;
7045;SDS011;3564;53.326;10.356;2023-08-12T13:40:22;6.07;;;5.30;;
7045;SDS011;3564;53.326;10.356;2023-08-12T13:42:48;7.30;;;5.30;;
7045;SDS011;3564;53.326;10.356;2023-08-12T13:45:14;8.83;;;5.37;;
7045;SDS011;3564;53.326;10.356;2023-08-12T13:47:40;6.13;;;5.53;;
7045;SDS011;3564;53.326;10.356;2023-08-12T13:50:06;6.53;;;5.83;;
7045;SDS011;3564;53.326;10.356;2023-08-12T13:52:31;8.00;;;5.40;;
7045;SDS011;3564;53.326;10.356;2023-08-12T13:54:58;6.77;;;5.57;;
7045;SDS011;3564;53.326;10.356;2023-08-12T13:57:24;7.23;;;5.00;;
7045;SDS011;3564;53.326;10.356;2023-08-12T13:59:49;5.20;;;4.70;;
7045;SDS011;3564;53.326;10.356;2023-08-12T14:02:15;5.30;;;4.80;;
7045;SDS011;3564;53.326;10.356;2023-08-12T14:04:43;5.93;;;5.33;;
7045;SDS011;3564;53.326;10.356;2023-08-12T14:07:09;6.50;;;5.17;;
7045;SDS011;3564;53.326;10.356;2023-08-12T14:09:34;5.47;;;4.97;;
7045;SDS011;3564;53.326;10.356;2023-08-12T14:12:00;9.27;;;6.30;;
7045;SDS011;3564;53.326;10.356;2023-08-12T14:14:25;6.43;;;5.70;;
7045;SDS011;3564;53.326;10.356;2023-08-12T14:16:55;6.80;;;6.03;;
7045;SDS011;3564;53.326;10.356;2023-08-12T14:19:24;7.30;;;6.10;;
7045;SDS011;3564;53.326;10.356;2023-08-12T14:21:49;8.30;;;6.60;;
7045;SDS011;3564;53.326;10.356;2023-08-12T14:24:17;9.13;;;6.80;;
7045;SDS011;3564;53.326;10.356;2023-08-12T14:26:43;8.87;;;7.57;;
7045;SDS011;3564;53.326;10.356;2023-08-12T14:29:08;9.27;;;7.10;;
7045;SDS011;3564;53.326;10.356;2023-08-12T14:31:34;7.50;;;6.80;;
7045;SDS011;3564;53.326;10.356;2023-08-12T14:34:00;7.90;;;7.20;;
7045;SDS011;3564;53.326;10.356;2023-08-12T14:36:26;8.63;;;7.67;;
7045;SDS011;3564;53.326;10.356;2023-08-12T14:38:56;10.30;;;8.30;;
7045;SDS011;3564;53.326;10.356;2023-08-12T14:41:22;10.90;;;8.90;;
7045;SDS011;3564;53.326;10.356;2023-08-12T14:43:50;10.67;;;8.40;;
7045;SDS011;3564;53.326;10.356;2023-08-12T14:46:16;12.07;;;8.63;;
7045;SDS011;3564;53.326;10.356;2023-08-12T14:48:41;13.57;;;8.70;;
7045;SDS011;3564;53.326;10.356;2023-08-12T14:51:07;9.20;;;7.93;;
7045;SDS011;3564;53.326;10.356;2023-08-12T14:53:35;10.40;;;8.33;;
7045;SDS011;3564;53.326;10.356;2023-08-12T14:56:01;10.50;;;8.33;;
7045;SDS011;3564;53.326;10.356;2023-08-12T14:58:26;9.70;;;8.70;;
7045;SDS011;3564;53.326;10.356;2023-08-12T15:00:55;14.50;;;10.20;;
7045;SDS011;3564;53.326;10.356;2023-08-12T15:03:21;11.27;;;9.90;;
7045;SDS011;3564;53.326;10.356;2023-08-12T15:05:47;10.07;;;9.03;;
7045;SDS011;3564;53.326;10.356;2023-08-12T15:08:23;9.90;;;9.00;;
7045;SDS011;3564;53.326;10.356;2023-08-12T15:10:48;10.20;;;8.70;;
7045;SDS011;3564;53.326;10.356;2023-08-12T15:13:14;10.90;;;9.17;;
7045;SDS011;3564;53.326;10.356;2023-08-12T15:15:39;9.93;;;8.73;;
7045;SDS011;3564;53.326;10.356;2023-08-12T15:18:05;10.13;;;9.13;;
7045;SDS011;3564;53.326;10.356;2023-08-12T15:20:33;13.73;;;9.53;;